Aviation Digital Data Service (ADDS)

Output produced by METARs form (0011 UTC 25 November 2017)
found at http://www.aviationweather.gov/adds/metars/
 
METAR text: EHGG 242355Z AUTO 20003KT 8000 NSC 02/01 Q1011
Conditions at: EHGG (GRONINGEN/EELDE , NL) observed 2355 UTC 24 November 2017
Temperature: 2.0°C (36°F)
Dewpoint: 1.0°C (34°F) [RH = 93%]
Pressure (altimeter): 29.85 inches Hg (1011.0 mb)
Winds: from the SSW (200 degrees) at 3 MPH (3 knots; 1.6 m/s)
Visibility: 5 miles (8 km)
Ceiling: at least 12,000 feet AGL
Clouds: sky clear below 12,000 feet AGL
Weather: no significant weather observed at this time